Time;durP1;ratioP1;P1;durP2;ratioP2;P2;SDS_P1;SDS_P2;PMS_P1;PMS_P2;Temp;Humidity;BMP_temperature;BMP_pressure;BME280_temperature;BME280_humidity;BME280_pressure;Samples;Min_cycle;Max_cycle;Signal;HPM_P1;HPM_P2
2021/09/30 00:00:00;;;;;;;;;;;22.10;60.10;;;;;;487483;244;1071;-48
2021/09/30 00:01:59;;;;;;;;;;;22.10;60.10;;;;;;487055;244;2356;-48
2021/09/30 00:04:00;;;;;;;;;;;22.10;60.10;;;;;;487527;244;1048;-48
2021/09/30 00:06:02;;;;;;;;;;;22.10;60.10;;;;;;487363;244;1051;-48
2021/09/30 00:08:03;;;;;;;;;;;22.10;60.10;;;;;;487757;244;1233;-48
2021/09/30 00:10:04;;;;;;;;;;;22.10;60.10;;;;;;487523;244;1214;-48
2021/09/30 00:12:10;;;;;;;;;;;22.00;60.10;;;;;;487273;240;1273;-48
2021/09/30 00:14:09;;;;;;;;;;;22.10;60.30;;;;;;487138;244;2123;-48
2021/09/30 00:33:06;;;;;;;;;;;22.10;60.30;;;;;;487196;244;1440;-48
2021/09/30 00:35:17;;;;;;;;;;;22.10;60.20;;;;;;487532;244;2178;-48
2021/09/30 00:40:00;;;;;;;;;;;22.10;60.20;;;;;;487530;244;1091;-48
2021/09/30 00:42:03;;;;;;;;;;;22.00;60.30;;;;;;486802;244;1604;-48
2021/09/30 00:46:25;;;;;;;;;;;22.00;60.30;;;;;;487187;244;1403;-48
2021/09/30 00:48:44;;;;;;;;;;;22.00;60.30;;;;;;487074;244;2283;-48
2021/09/30 00:50:44;;;;;;;;;;;22.00;60.30;;;;;;486701;244;2422;-48
2021/09/30 00:52:45;;;;;;;;;;;22.10;60.30;;;;;;486744;244;2010;-48
2021/09/30 00:55:06;;;;;;;;;;;22.00;60.20;;;;;;486930;244;2126;-48
2021/09/30 01:18:34;;;;;;;;;;;22.00;60.10;;;;;;487235;244;1165;-48
2021/09/30 01:33:22;;;;;;;;;;;22.10;60.10;;;;;;461373;258;1274;-48
2021/09/30 02:19:41;;;;;;;;;;;22.00;60.10;;;;;;487321;244;1000;-48
2021/09/30 02:22:00;;;;;;;;;;;22.10;60.20;;;;;;487256;244;2214;-47
2021/09/30 02:26:29;;;;;;;;;;;22.00;60.10;;;;;;485658;244;1213;-47
2021/09/30 02:58:56;;;;;;;;;;;22.10;60.10;;;;;;487280;244;1249;-48
2021/09/30 03:00:56;;;;;;;;;;;22.00;60.00;;;;;;487347;244;2399;-48
2021/09/30 03:02:58;;;;;;;;;;;22.00;60.00;;;;;;487418;244;1208;-48
2021/09/30 03:04:59;;;;;;;;;;;22.10;60.10;;;;;;487629;244;1198;-48
2021/09/30 03:07:01;;;;;;;;;;;22.10;60.10;;;;;;487516;244;1208;-48
2021/09/30 03:09:03;;;;;;;;;;;22.10;60.10;;;;;;487657;244;1193;-48
2021/09/30 03:11:04;;;;;;;;;;;22.00;60.10;;;;;;487201;244;2250;-47
2021/09/30 03:13:05;;;;;;;;;;;22.10;60.10;;;;;;487510;244;1114;-48
2021/09/30 03:15:12;;;;;;;;;;;22.10;60.00;;;;;;487489;244;2151;-47
2021/09/30 03:17:08;;;;;;;;;;;22.10;60.00;;;;;;487294;244;2277;-48
2021/09/30 03:19:19;;;;;;;;;;;22.10;60.00;;;;;;487723;244;1185;-48
2021/09/30 03:23:38;;;;;;;;;;;22.10;60.00;;;;;;487324;244;1121;-48
2021/09/30 03:25:39;;;;;;;;;;;22.10;60.00;;;;;;487502;244;1087;-47
2021/09/30 03:27:40;;;;;;;;;;;22.10;60.00;;;;;;487296;244;1241;-48
2021/09/30 03:29:41;;;;;;;;;;;22.10;60.00;;;;;;487666;244;1186;-47
2021/09/30 03:31:43;;;;;;;;;;;22.10;60.10;;;;;;487204;244;1479;-48
2021/09/30 03:33:46;;;;;;;;;;;22.00;60.00;;;;;;487324;244;1117;-48
2021/09/30 03:35:45;;;;;;;;;;;22.10;60.00;;;;;;487355;244;2182;-48
2021/09/30 03:37:47;;;;;;;;;;;22.10;60.00;;;;;;487384;244;1205;-48
2021/09/30 03:39:48;;;;;;;;;;;22.10;60.00;;;;;;487323;244;1173;-48
2021/09/30 03:41:49;;;;;;;;;;;22.10;59.90;;;;;;487238;244;1138;-48
2021/09/30 03:43:50;;;;;;;;;;;22.10;60.00;;;;;;487745;244;1598;-48
2021/09/30 03:45:52;;;;;;;;;;;22.10;60.10;;;;;;487383;244;1143;-48
2021/09/30 03:47:53;;;;;;;;;;;22.10;60.00;;;;;;487283;244;1174;-48
2021/09/30 03:49:54;;;;;;;;;;;22.10;60.00;;;;;;487296;244;1159;-48
2021/09/30 03:52:02;;;;;;;;;;;22.10;60.00;;;;;;487226;244;1291;-48
2021/09/30 03:54:12;;;;;;;;;;;22.10;60.10;;;;;;487551;244;1457;-48
2021/09/30 03:56:10;;;;;;;;;;;22.10;60.00;;;;;;486967;244;2171;-48
2021/09/30 04:00:43;;;;;;;;;;;22.10;60.00;;;;;;461428;258;1251;-48
2021/09/30 04:02:44;;;;;;;;;;;22.10;59.90;;;;;;475010;244;1577;-48
2021/09/30 04:04:46;;;;;;;;;;;22.10;60.00;;;;;;487397;244;1008;-48
2021/09/30 04:06:47;;;;;;;;;;;22.10;60.00;;;;;;487433;244;2461;-48
2021/09/30 04:08:49;;;;;;;;;;;22.10;60.00;;;;;;487660;244;1175;-48
2021/09/30 04:10:50;;;;;;;;;;;22.10;59.90;;;;;;487673;244;1298;-48
2021/09/30 04:12:52;;;;;;;;;;;22.10;60.00;;;;;;487647;244;1282;-48
2021/09/30 04:14:53;;;;;;;;;;;22.10;60.00;;;;;;487211;244;1076;-48
2021/09/30 04:16:54;;;;;;;;;;;22.10;60.10;;;;;;487067;244;2139;-47
2021/09/30 04:18:56;;;;;;;;;;;22.00;60.00;;;;;;487568;244;1186;-48
2021/09/30 04:20:57;;;;;;;;;;;22.10;60.00;;;;;;487067;244;1264;-48
2021/09/30 04:23:02;;;;;;;;;;;22.10;59.80;;;;;;487537;244;1147;-48
2021/09/30 04:25:00;;;;;;;;;;;22.10;59.90;;;;;;487056;244;2239;-48
2021/09/30 04:27:01;;;;;;;;;;;22.10;60.00;;;;;;487520;244;1157;-48
2021/09/30 04:29:03;;;;;;;;;;;22.10;60.00;;;;;;487706;244;1222;-48
2021/09/30 04:31:04;;;;;;;;;;;22.10;60.00;;;;;;487375;244;1251;-47
2021/09/30 04:33:05;;;;;;;;;;;22.10;59.90;;;;;;487110;244;1085;-48
2021/09/30 04:35:07;;;;;;;;;;;22.10;60.00;;;;;;487236;244;1073;-48
2021/09/30 04:37:08;;;;;;;;;;;22.10;60.00;;;;;;487237;244;2194;-48
2021/09/30 04:39:10;;;;;;;;;;;22.00;60.00;;;;;;487074;244;1240;-48
2021/09/30 04:41:11;;;;;;;;;;;22.00;60.00;;;;;;487061;244;2474;-47
2021/09/30 04:43:12;;;;;;;;;;;22.10;60.10;;;;;;487124;244;1125;-48
2021/09/30 04:45:13;;;;;;;;;;;22.00;60.10;;;;;;487132;244;1117;-48
2021/09/30 04:47:15;;;;;;;;;;;22.00;60.10;;;;;;487058;244;1690;-48
2021/09/30 04:49:16;;;;;;;;;;;22.00;60.00;;;;;;487282;244;1114;-48
2021/09/30 04:51:17;;;;;;;;;;;22.00;60.10;;;;;;487343;244;1208;-48
2021/09/30 04:53:19;;;;;;;;;;;22.10;60.10;;;;;;487084;244;1331;-48
2021/09/30 04:55:20;;;;;;;;;;;22.10;60.00;;;;;;487127;244;2115;-48
2021/09/30 04:57:21;;;;;;;;;;;22.10;60.00;;;;;;487040;244;1147;-48
2021/09/30 04:59:23;;;;;;;;;;;22.10;60.00;;;;;;487261;244;1067;-48
2021/09/30 05:01:24;;;;;;;;;;;22.10;59.90;;;;;;487223;244;1279;-48
2021/09/30 05:03:25;;;;;;;;;;;22.10;59.90;;;;;;486964;244;1101;-48
2021/09/30 05:05:26;;;;;;;;;;;22.10;59.90;;;;;;487012;244;1093;-48
2021/09/30 05:07:28;;;;;;;;;;;22.10;59.90;;;;;;486933;244;1269;-48
2021/09/30 05:09:32;;;;;;;;;;;22.10;59.90;;;;;;487191;244;1200;-48
2021/09/30 05:11:35;;;;;;;;;;;22.10;59.90;;;;;;486866;244;1964;-47
2021/09/30 05:13:37;;;;;;;;;;;22.10;59.90;;;;;;486812;244;1766;-48
2021/09/30 05:15:38;;;;;;;;;;;22.10;60.00;;;;;;486925;244;2186;-47
2021/09/30 05:17:40;;;;;;;;;;;22.00;59.90;;;;;;486824;244;1237;-48
2021/09/30 05:19:41;;;;;;;;;;;22.10;59.90;;;;;;487239;244;1066;-47
2021/09/30 05:21:42;;;;;;;;;;;22.10;60.00;;;;;;487108;244;1223;-48
2021/09/30 05:23:44;;;;;;;;;;;22.10;59.90;;;;;;487193;244;1062;-47
2021/09/30 05:25:45;;;;;;;;;;;22.10;60.00;;;;;;486983;244;1078;-48
2021/09/30 05:27:46;;;;;;;;;;;22.10;59.90;;;;;;487151;244;1173;-47
2021/09/30 05:29:48;;;;;;;;;;;22.10;59.90;;;;;;486961;244;1084;-48
2021/09/30 05:31:49;;;;;;;;;;;22.10;60.00;;;;;;487014;244;1335;-48
2021/09/30 05:33:50;;;;;;;;;;;22.00;60.00;;;;;;486959;244;1082;-48
2021/09/30 05:35:52;;;;;;;;;;;22.10;59.90;;;;;;486991;244;2187;-48
2021/09/30 05:37:53;;;;;;;;;;;22.10;60.00;;;;;;486910;244;1205;-48
2021/09/30 05:39:54;;;;;;;;;;;22.10;60.10;;;;;;486818;244;1093;-47
2021/09/30 05:41:57;;;;;;;;;;;22.10;59.90;;;;;;486848;244;1376;-47
2021/09/30 05:44:03;;;;;;;;;;;22.10;59.90;;;;;;486921;244;1964;-48
2021/09/30 05:46:00;;;;;;;;;;;22.10;60.00;;;;;;486788;244;1888;-48
2021/09/30 05:48:00;;;;;;;;;;;22.10;59.90;;;;;;486810;244;2446;-47
2021/09/30 05:50:02;;;;;;;;;;;22.10;59.80;;;;;;486921;244;1093;-48
2021/09/30 05:52:03;;;;;;;;;;;22.10;59.80;;;;;;486846;244;1301;-48
2021/09/30 05:54:04;;;;;;;;;;;22.10;59.80;;;;;;486988;244;1127;-48
2021/09/30 05:56:06;;;;;;;;;;;22.10;59.70;;;;;;486829;244;2187;-48
2021/09/30 05:58:07;;;;;;;;;;;22.10;59.70;;;;;;487002;244;1292;-47
2021/09/30 06:00:13;;;;;;;;;;;22.10;59.80;;;;;;486946;244;1072;-47
2021/09/30 06:11:52;;;;;;;;;;;22.10;60.00;;;;;;472083;244;1241;-48
2021/09/30 06:13:52;;;;;;;;;;;22.10;60.00;;;;;;486654;244;2054;-48
2021/09/30 06:15:50;;;;;;;;;;;22.00;59.90;;;;;;486712;244;2326;-48
2021/09/30 06:17:54;;;;;;;;;;;22.10;59.90;;;;;;486765;244;1233;-48
2021/09/30 06:19:53;;;;;;;;;;;22.10;59.90;;;;;;486666;244;2573;-48
2021/09/30 06:21:54;;;;;;;;;;;22.10;60.00;;;;;;486800;244;1240;-48
2021/09/30 06:23:55;;;;;;;;;;;22.10;60.00;;;;;;486793;244;1214;-48
2021/09/30 06:25:57;;;;;;;;;;;22.10;60.00;;;;;;486715;244;1154;-48
2021/09/30 06:27:58;;;;;;;;;;;22.00;59.90;;;;;;486654;244;1098;-48
2021/09/30 06:29:59;;;;;;;;;;;22.00;59.90;;;;;;486775;244;1127;-48
2021/09/30 06:32:00;;;;;;;;;;;22.10;59.90;;;;;;486740;244;1232;-48
2021/09/30 06:34:02;;;;;;;;;;;22.00;59.90;;;;;;486687;244;1260;-48
2021/09/30 06:36:03;;;;;;;;;;;22.10;60.00;;;;;;486517;244;2186;-48
2021/09/30 06:38:05;;;;;;;;;;;22.10;60.00;;;;;;486698;244;1095;-47
2021/09/30 06:40:06;;;;;;;;;;;22.00;60.00;;;;;;486433;244;1180;-48
2021/09/30 06:42:07;;;;;;;;;;;22.00;60.00;;;;;;486602;244;1327;-47
2021/09/30 06:44:09;;;;;;;;;;;22.10;60.00;;;;;;487064;244;1065;-47
2021/09/30 06:46:10;;;;;;;;;;;22.10;60.00;;;;;;486556;244;1318;-47
2021/09/30 06:48:11;;;;;;;;;;;22.10;59.90;;;;;;486665;244;1222;-48
2021/09/30 06:50:13;;;;;;;;;;;22.00;59.90;;;;;;486593;244;1236;-48
2021/09/30 06:52:14;;;;;;;;;;;22.10;59.90;;;;;;486536;244;1212;-48
2021/09/30 06:54:15;;;;;;;;;;;22.10;59.80;;;;;;486504;244;1121;-48
2021/09/30 06:56:19;;;;;;;;;;;22.10;59.90;;;;;;486481;244;2193;-48
2021/09/30 06:58:23;;;;;;;;;;;22.10;59.80;;;;;;486481;244;2183;-47
2021/09/30 07:00:21;;;;;;;;;;;22.00;59.90;;;;;;486194;244;2321;-48
2021/09/30 07:02:22;;;;;;;;;;;22.00;59.90;;;;;;486441;244;2128;-48
2021/09/30 07:04:22;;;;;;;;;;;22.00;60.00;;;;;;486511;244;1751;-48
2021/09/30 07:06:24;;;;;;;;;;;22.00;60.00;;;;;;486533;244;1195;-48
2021/09/30 07:08:25;;;;;;;;;;;22.00;60.00;;;;;;486504;244;1219;-48
2021/09/30 07:10:26;;;;;;;;;;;22.10;59.90;;;;;;486399;244;1314;-48
2021/09/30 07:12:27;;;;;;;;;;;22.10;59.70;;;;;;486491;244;1348;-48
2021/09/30 07:14:29;;;;;;;;;;;22.10;59.50;;;;;;486434;244;1421;-48
2021/09/30 07:16:30;;;;;;;;;;;22.20;59.50;;;;;;486468;244;2182;-48
2021/09/30 07:18:31;;;;;;;;;;;22.10;59.60;;;;;;486509;244;1219;-48
2021/09/30 07:20:33;;;;;;;;;;;22.10;59.60;;;;;;486244;244;1549;-48
2021/09/30 07:22:34;;;;;;;;;;;22.20;59.60;;;;;;486238;244;1240;-48
2021/09/30 07:24:37;;;;;;;;;;;22.20;59.60;;;;;;486396;244;1147;-47
2021/09/30 07:26:40;;;;;;;;;;;22.20;59.60;;;;;;486287;244;1211;-47
2021/09/30 07:28:40;;;;;;;;;;;22.20;59.60;;;;;;486296;244;2297;-48
2021/09/30 07:30:41;;;;;;;;;;;22.20;59.60;;;;;;486242;244;1339;-48
2021/09/30 07:32:43;;;;;;;;;;;22.10;59.60;;;;;;486599;244;1154;-48
2021/09/30 07:34:44;;;;;;;;;;;22.10;59.60;;;;;;486347;244;1102;-47
2021/09/30 07:36:45;;;;;;;;;;;22.10;59.60;;;;;;486343;244;2202;-47
2021/09/30 07:38:47;;;;;;;;;;;22.10;59.50;;;;;;486423;244;1114;-48
2021/09/30 07:40:48;;;;;;;;;;;22.10;59.60;;;;;;486317;244;1113;-47
2021/09/30 07:42:49;;;;;;;;;;;22.10;59.70;;;;;;486289;244;1693;-48
2021/09/30 07:44:51;;;;;;;;;;;22.10;59.60;;;;;;486326;244;1098;-47
2021/09/30 07:46:52;;;;;;;;;;;22.10;59.60;;;;;;486236;244;1312;-47
2021/09/30 07:48:53;;;;;;;;;;;22.10;59.60;;;;;;486420;244;1422;-48
2021/09/30 07:50:55;;;;;;;;;;;22.10;59.70;;;;;;486374;244;1405;-48
2021/09/30 07:52:57;;;;;;;;;;;22.10;59.70;;;;;;486383;244;1381;-48
2021/09/30 07:54:58;;;;;;;;;;;22.10;59.70;;;;;;486387;244;2304;-48
2021/09/30 07:56:59;;;;;;;;;;;22.10;59.50;;;;;;486346;244;2119;-47
2021/09/30 07:59:00;;;;;;;;;;;22.10;59.60;;;;;;486341;244;1258;-48
2021/09/30 08:01:01;;;;;;;;;;;22.10;59.70;;;;;;486329;244;1221;-47
2021/09/30 08:03:04;;;;;;;;;;;22.10;59.60;;;;;;486429;244;1492;-48
2021/09/30 08:05:04;;;;;;;;;;;22.10;59.70;;;;;;486190;244;2289;-48
2021/09/30 08:07:06;;;;;;;;;;;22.10;59.60;;;;;;486073;244;1309;-47
2021/09/30 08:09:07;;;;;;;;;;;22.10;59.60;;;;;;486604;244;1160;-48
2021/09/30 08:11:09;;;;;;;;;;;22.10;59.70;;;;;;486483;244;1284;-48
2021/09/30 08:13:10;;;;;;;;;;;22.20;59.60;;;;;;486859;244;1203;-48
2021/09/30 08:15:12;;;;;;;;;;;22.10;59.60;;;;;;486411;244;1308;-48
2021/09/30 08:17:13;;;;;;;;;;;22.10;59.60;;;;;;486761;244;2186;-48
2021/09/30 08:19:15;;;;;;;;;;;22.10;59.70;;;;;;486469;244;1234;-47
2021/09/30 08:21:16;;;;;;;;;;;22.10;59.70;;;;;;486198;244;1371;-47
2021/09/30 08:23:17;;;;;;;;;;;22.10;59.70;;;;;;486373;244;1143;-48
2021/09/30 08:25:18;;;;;;;;;;;22.10;59.70;;;;;;486385;244;1077;-47
2021/09/30 08:27:20;;;;;;;;;;;22.10;59.70;;;;;;486607;244;1203;-48
2021/09/30 08:29:21;;;;;;;;;;;22.10;59.70;;;;;;486517;244;1092;-48
2021/09/30 08:31:24;;;;;;;;;;;22.10;59.70;;;;;;486564;244;1326;-48
2021/09/30 08:33:25;;;;;;;;;;;22.10;59.60;;;;;;486344;244;1798;-48
2021/09/30 08:35:25;;;;;;;;;;;22.10;59.60;;;;;;486382;244;1733;-48
2021/09/30 08:37:27;;;;;;;;;;;22.10;59.60;;;;;;486358;244;2198;-48
2021/09/30 08:39:28;;;;;;;;;;;22.10;59.60;;;;;;486329;244;1148;-48
2021/09/30 08:41:29;;;;;;;;;;;22.10;59.50;;;;;;486304;244;1124;-48
2021/09/30 08:43:31;;;;;;;;;;;22.10;59.50;;;;;;486317;244;1257;-48
2021/09/30 08:45:32;;;;;;;;;;;22.10;59.50;;;;;;486291;244;1209;-48
2021/09/30 08:47:34;;;;;;;;;;;22.10;59.60;;;;;;486695;244;1228;-47
2021/09/30 08:49:35;;;;;;;;;;;22.10;59.60;;;;;;486554;244;2055;-48
2021/09/30 08:51:36;;;;;;;;;;;22.10;59.60;;;;;;486378;244;1251;-47
2021/09/30 08:53:37;;;;;;;;;;;22.10;59.60;;;;;;486312;244;1315;-48
2021/09/30 08:55:39;;;;;;;;;;;22.10;59.70;;;;;;485929;244;1221;-48
2021/09/30 08:57:40;;;;;;;;;;;22.10;59.60;;;;;;486135;244;2202;-48
2021/09/30 08:59:41;;;;;;;;;;;22.20;59.60;;;;;;486402;244;1249;-48
2021/09/30 09:01:43;;;;;;;;;;;22.10;59.50;;;;;;486346;244;1302;-47
2021/09/30 09:03:45;;;;;;;;;;;22.20;59.50;;;;;;486345;244;1250;-48
2021/09/30 09:05:45;;;;;;;;;;;22.20;59.50;;;;;;486324;244;1767;-48
2021/09/30 09:07:46;;;;;;;;;;;22.10;59.50;;;;;;486419;244;1230;-47
2021/09/30 09:09:49;;;;;;;;;;;22.10;59.60;;;;;;486430;244;1156;-48
2021/09/30 09:11:50;;;;;;;;;;;22.10;59.60;;;;;;486281;244;2022;-47
2021/09/30 09:13:51;;;;;;;;;;;22.10;59.60;;;;;;486237;244;1227;-48
2021/09/30 09:15:55;;;;;;;;;;;22.10;59.60;;;;;;486030;244;1157;-47
2021/09/30 09:17:56;;;;;;;;;;;22.10;59.70;;;;;;486877;244;2194;-48
2021/09/30 09:19:57;;;;;;;;;;;22.00;59.80;;;;;;486995;244;1203;-48
2021/09/30 09:21:58;;;;;;;;;;;22.00;59.70;;;;;;486763;244;1382;-48
2021/09/30 09:24:00;;;;;;;;;;;22.10;59.70;;;;;;486739;244;1083;-48
2021/09/30 09:26:01;;;;;;;;;;;22.10;59.70;;;;;;486452;244;1197;-47
2021/09/30 09:28:02;;;;;;;;;;;22.10;59.60;;;;;;487068;244;1054;-48
2021/09/30 09:30:03;;;;;;;;;;;22.20;59.60;;;;;;486675;244;1083;-47
2021/09/30 09:32:05;;;;;;;;;;;22.20;59.60;;;;;;486565;244;1329;-48
2021/09/30 09:34:07;;;;;;;;;;;22.10;59.60;;;;;;487171;244;1192;-48
2021/09/30 09:36:09;;;;;;;;;;;22.10;59.70;;;;;;487084;244;1233;-47
2021/09/30 09:38:12;;;;;;;;;;;22.10;59.70;;;;;;486640;244;2182;-47
2021/09/30 09:40:11;;;;;;;;;;;22.10;59.80;;;;;;486513;244;2037;-48
2021/09/30 09:42:14;;;;;;;;;;;22.00;59.70;;;;;;486711;244;1137;-47
2021/09/30 09:44:14;;;;;;;;;;;22.10;59.80;;;;;;486554;244;2237;-48
2021/09/30 09:46:17;;;;;;;;;;;22.10;59.80;;;;;;487018;244;1207;-48
2021/09/30 09:48:16;;;;;;;;;;;22.10;59.70;;;;;;486259;244;2495;-48
2021/09/30 09:50:18;;;;;;;;;;;22.10;59.70;;;;;;486373;244;1230;-47
2021/09/30 09:52:19;;;;;;;;;;;22.10;59.60;;;;;;486317;244;1188;-47
2021/09/30 09:54:20;;;;;;;;;;;22.10;59.70;;;;;;486400;244;1216;-48
2021/09/30 09:56:22;;;;;;;;;;;22.00;59.70;;;;;;486037;244;1744;-48
2021/09/30 09:58:23;;;;;;;;;;;22.10;59.60;;;;;;486408;244;2161;-48
2021/09/30 10:00:24;;;;;;;;;;;22.10;59.70;;;;;;486178;244;1147;-47
2021/09/30 10:02:26;;;;;;;;;;;22.10;59.60;;;;;;486608;244;1139;-48
2021/09/30 10:04:27;;;;;;;;;;;22.10;59.70;;;;;;486509;244;1402;-48
2021/09/30 10:06:28;;;;;;;;;;;22.00;59.70;;;;;;486574;244;1277;-48
2021/09/30 10:08:31;;;;;;;;;;;22.00;59.70;;;;;;487282;244;1322;-48
2021/09/30 10:10:31;;;;;;;;;;;22.10;59.70;;;;;;486301;244;1346;-48
2021/09/30 10:12:32;;;;;;;;;;;22.10;59.70;;;;;;486406;244;1311;-47
2021/09/30 10:14:36;;;;;;;;;;;22.10;59.70;;;;;;486509;244;1123;-47
2021/09/30 10:16:35;;;;;;;;;;;22.10;59.70;;;;;;486359;244;1467;-48
2021/09/30 10:18:36;;;;;;;;;;;22.10;59.60;;;;;;486540;244;2190;-48
2021/09/30 10:20:38;;;;;;;;;;;22.10;59.60;;;;;;486364;244;1308;-48
2021/09/30 10:22:39;;;;;;;;;;;22.00;59.70;;;;;;486335;244;1181;-48
2021/09/30 10:24:40;;;;;;;;;;;22.10;59.60;;;;;;486294;244;1209;-48
2021/09/30 10:26:44;;;;;;;;;;;22.10;59.70;;;;;;486363;244;1182;-48
2021/09/30 10:28:44;;;;;;;;;;;22.10;59.70;;;;;;486710;244;2097;-48
2021/09/30 10:30:44;;;;;;;;;;;22.00;59.70;;;;;;486343;244;2350;-48
2021/09/30 10:32:45;;;;;;;;;;;22.10;59.70;;;;;;486366;244;1282;-47
2021/09/30 10:34:47;;;;;;;;;;;22.10;59.60;;;;;;486303;244;1220;-48
2021/09/30 10:36:49;;;;;;;;;;;22.10;59.60;;;;;;486469;244;1230;-47
2021/09/30 10:38:49;;;;;;;;;;;22.10;59.60;;;;;;486704;244;2209;-48
2021/09/30 10:40:51;;;;;;;;;;;22.10;59.60;;;;;;486375;244;1298;-47
2021/09/30 10:42:56;;;;;;;;;;;22.10;59.60;;;;;;486495;244;1193;-48
2021/09/30 10:44:57;;;;;;;;;;;22.10;59.50;;;;;;486245;244;1155;-47
2021/09/30 10:46:58;;;;;;;;;;;22.10;59.60;;;;;;486456;244;1308;-48
2021/09/30 10:49:00;;;;;;;;;;;22.10;59.60;;;;;;486737;244;985;-48
2021/09/30 10:51:01;;;;;;;;;;;22.10;59.60;;;;;;486514;244;1306;-48
2021/09/30 10:53:02;;;;;;;;;;;22.10;59.60;;;;;;486271;244;1193;-48
2021/09/30 10:55:04;;;;;;;;;;;22.10;59.60;;;;;;486399;244;1096;-48
2021/09/30 10:57:05;;;;;;;;;;;22.10;59.50;;;;;;486558;244;1363;-48
2021/09/30 10:59:06;;;;;;;;;;;22.10;59.60;;;;;;487242;244;2186;-47
2021/09/30 11:01:08;;;;;;;;;;;22.10;59.50;;;;;;486632;244;1233;-48
2021/09/30 11:03:21;;;;;;;;;;;22.10;59.50;;;;;;486737;244;941;-48
2021/09/30 11:05:22;;;;;;;;;;;22.10;59.60;;;;;;486556;244;1328;-48
2021/09/30 11:07:24;;;;;;;;;;;22.10;59.60;;;;;;486467;244;1226;-48
2021/09/30 11:09:26;;;;;;;;;;;22.10;59.60;;;;;;486281;244;1167;-47
2021/09/30 11:11:26;;;;;;;;;;;22.10;59.60;;;;;;486383;244;1990;-48
2021/09/30 11:13:30;;;;;;;;;;;22.10;59.60;;;;;;487076;244;1047;-48
2021/09/30 11:15:29;;;;;;;;;;;22.00;59.70;;;;;;486407;244;2318;-48
2021/09/30 11:17:30;;;;;;;;;;;22.00;59.70;;;;;;486865;244;1262;-48
2021/09/30 11:19:33;;;;;;;;;;;22.00;59.70;;;;;;486764;244;2252;-48
2021/09/30 11:21:34;;;;;;;;;;;22.00;59.70;;;;;;486340;244;2108;-48
2021/09/30 11:23:34;;;;;;;;;;;22.10;59.60;;;;;;486312;244;2152;-47
2021/09/30 11:25:36;;;;;;;;;;;22.10;59.60;;;;;;486542;244;1340;-48
2021/09/30 11:27:37;;;;;;;;;;;22.10;59.60;;;;;;486325;244;1293;-48
2021/09/30 11:29:38;;;;;;;;;;;22.10;59.50;;;;;;486423;244;1196;-48
2021/09/30 11:31:40;;;;;;;;;;;22.10;59.60;;;;;;486398;244;1162;-48
2021/09/30 11:33:41;;;;;;;;;;;22.10;59.60;;;;;;486325;244;1193;-48
2021/09/30 11:35:42;;;;;;;;;;;22.10;59.60;;;;;;486150;244;1312;-48
2021/09/30 11:37:44;;;;;;;;;;;22.10;59.60;;;;;;486130;244;2182;-48
2021/09/30 11:39:49;;;;;;;;;;;22.10;59.60;;;;;;486514;244;1198;-47
2021/09/30 11:41:48;;;;;;;;;;;22.10;59.60;;;;;;486426;244;1691;-47
2021/09/30 11:43:49;;;;;;;;;;;22.10;59.50;;;;;;486350;244;1238;-48
2021/09/30 11:45:50;;;;;;;;;;;22.10;59.50;;;;;;486306;244;1343;-48
2021/09/30 11:47:52;;;;;;;;;;;22.10;59.60;;;;;;487134;244;1099;-48
2021/09/30 11:49:53;;;;;;;;;;;22.10;59.50;;;;;;486714;244;1299;-47
2021/09/30 11:51:54;;;;;;;;;;;22.10;59.50;;;;;;486701;244;1160;-48
2021/09/30 11:53:56;;;;;;;;;;;22.10;59.60;;;;;;486692;244;1057;-48
2021/09/30 11:55:57;;;;;;;;;;;22.10;59.60;;;;;;487036;244;1179;-48
2021/09/30 11:57:58;;;;;;;;;;;22.10;59.60;;;;;;487181;244;2197;-48
2021/09/30 11:59:59;;;;;;;;;;;22.10;59.40;;;;;;486918;244;1081;-48
2021/09/30 12:02:02;;;;;;;;;;;22.10;59.40;;;;;;486561;244;1274;-48
2021/09/30 12:04:03;;;;;;;;;;;22.10;59.40;;;;;;486833;244;1218;-48
2021/09/30 12:06:05;;;;;;;;;;;22.10;59.50;;;;;;486358;244;1320;-48
2021/09/30 12:08:06;;;;;;;;;;;22.10;59.50;;;;;;487251;244;1044;-47
2021/09/30 12:10:07;;;;;;;;;;;22.10;59.50;;;;;;487336;244;979;-48
2021/09/30 12:12:09;;;;;;;;;;;22.00;59.50;;;;;;486766;244;1326;-48
2021/09/30 12:14:11;;;;;;;;;;;22.10;59.50;;;;;;486790;244;1317;-47
2021/09/30 12:16:12;;;;;;;;;;;22.10;59.60;;;;;;486389;244;2076;-48
2021/09/30 12:18:14;;;;;;;;;;;22.10;59.60;;;;;;486397;244;2123;-48
2021/09/30 12:20:14;;;;;;;;;;;22.10;59.50;;;;;;486346;244;2001;-48
2021/09/30 12:22:15;;;;;;;;;;;22.10;59.40;;;;;;486759;244;1276;-48
2021/09/30 12:24:17;;;;;;;;;;;22.10;59.40;;;;;;486532;244;1373;-48
2021/09/30 12:26:18;;;;;;;;;;;22.10;59.40;;;;;;486356;244;1253;-48
2021/09/30 12:28:20;;;;;;;;;;;22.10;59.50;;;;;;487116;244;1012;-48
2021/09/30 12:30:21;;;;;;;;;;;22.10;59.50;;;;;;486709;244;1066;-48
2021/09/30 12:32:26;;;;;;;;;;;22.10;59.60;;;;;;487077;244;1027;-47
2021/09/30 12:34:23;;;;;;;;;;;22.10;59.50;;;;;;486454;244;1322;-48
2021/09/30 12:36:25;;;;;;;;;;;22.10;59.60;;;;;;486138;244;1340;-48
2021/09/30 12:38:26;;;;;;;;;;;22.10;59.60;;;;;;486215;244;2201;-47
2021/09/30 12:40:27;;;;;;;;;;;22.10;59.50;;;;;;486454;244;1215;-48
2021/09/30 12:42:29;;;;;;;;;;;22.10;59.50;;;;;;486451;244;1173;-47
2021/09/30 12:44:30;;;;;;;;;;;22.10;59.60;;;;;;486482;244;1249;-47
2021/09/30 12:46:31;;;;;;;;;;;22.10;59.60;;;;;;486538;244;1274;-48
2021/09/30 12:48:33;;;;;;;;;;;22.10;59.50;;;;;;486460;244;1247;-48
2021/09/30 12:50:34;;;;;;;;;;;22.10;59.50;;;;;;486310;244;1266;-47
2021/09/30 12:52:35;;;;;;;;;;;22.00;59.60;;;;;;486574;244;1204;-48
2021/09/30 12:54:37;;;;;;;;;;;22.10;59.50;;;;;;486684;244;890;-48
2021/09/30 12:56:38;;;;;;;;;;;22.10;59.50;;;;;;487096;244;1096;-47
2021/09/30 12:58:39;;;;;;;;;;;22.00;59.50;;;;;;486682;244;2198;-48
2021/09/30 13:00:41;;;;;;;;;;;22.00;59.50;;;;;;487102;244;1170;-48
2021/09/30 13:02:42;;;;;;;;;;;22.10;59.50;;;;;;486460;244;1068;-47
2021/09/30 13:04:43;;;;;;;;;;;22.10;59.50;;;;;;486479;244;1076;-48
2021/09/30 13:06:45;;;;;;;;;;;22.10;59.50;;;;;;486384;244;1301;-48
2021/09/30 13:08:46;;;;;;;;;;;22.10;59.50;;;;;;486425;244;1077;-48
2021/09/30 13:10:47;;;;;;;;;;;22.10;59.40;;;;;;486341;244;1377;-48
2021/09/30 13:12:49;;;;;;;;;;;22.10;59.30;;;;;;487138;244;1682;-47
2021/09/30 13:14:50;;;;;;;;;;;22.10;59.40;;;;;;486740;244;977;-48
2021/09/30 13:16:51;;;;;;;;;;;22.10;59.40;;;;;;486230;244;1320;-48
2021/09/30 13:18:53;;;;;;;;;;;22.10;59.40;;;;;;486301;244;2198;-48
2021/09/30 13:20:54;;;;;;;;;;;22.10;59.40;;;;;;486337;244;1357;-48
2021/09/30 13:22:55;;;;;;;;;;;22.10;59.40;;;;;;486405;244;1229;-48
2021/09/30 13:24:56;;;;;;;;;;;22.10;59.50;;;;;;486344;244;1189;-48
2021/09/30 13:26:58;;;;;;;;;;;22.00;59.50;;;;;;486384;244;1277;-48
2021/09/30 13:28:59;;;;;;;;;;;22.00;59.60;;;;;;486365;244;1134;-48
2021/09/30 13:31:00;;;;;;;;;;;22.00;59.60;;;;;;486134;244;1380;-48
2021/09/30 13:33:02;;;;;;;;;;;22.00;59.50;;;;;;486130;244;1344;-47
2021/09/30 13:35:03;;;;;;;;;;;22.00;59.50;;;;;;486401;244;1139;-48
2021/09/30 13:37:04;;;;;;;;;;;22.10;59.60;;;;;;486264;244;1321;-48
2021/09/30 13:39:07;;;;;;;;;;;22.00;59.50;;;;;;486433;244;2203;-48
2021/09/30 13:41:07;;;;;;;;;;;22.10;59.50;;;;;;486302;244;1701;-48
2021/09/30 13:43:08;;;;;;;;;;;22.00;59.60;;;;;;486497;244;1180;-48
2021/09/30 13:45:10;;;;;;;;;;;22.10;59.50;;;;;;486328;244;1360;-48
2021/09/30 13:47:11;;;;;;;;;;;22.10;59.50;;;;;;486613;244;1376;-48
2021/09/30 13:49:12;;;;;;;;;;;22.10;59.50;;;;;;486785;244;1103;-48
2021/09/30 13:51:14;;;;;;;;;;;22.10;59.50;;;;;;486664;244;1242;-48
2021/09/30 13:53:21;;;;;;;;;;;22.10;59.50;;;;;;486740;244;1251;-48
2021/09/30 13:55:16;;;;;;;;;;;22.10;59.50;;;;;;486342;244;1618;-48
2021/09/30 13:57:18;;;;;;;;;;;22.10;59.50;;;;;;486771;244;1202;-47
2021/09/30 13:59:19;;;;;;;;;;;22.10;59.50;;;;;;486446;244;2203;-48
2021/09/30 14:01:20;;;;;;;;;;;22.10;59.40;;;;;;486336;244;1327;-48
2021/09/30 14:03:22;;;;;;;;;;;22.10;59.40;;;;;;486440;244;1190;-48
2021/09/30 14:05:23;;;;;;;;;;;22.10;59.40;;;;;;486203;244;1202;-48
2021/09/30 14:07:24;;;;;;;;;;;22.10;59.40;;;;;;486239;244;1368;-48
2021/09/30 14:09:25;;;;;;;;;;;22.10;59.40;;;;;;486544;244;1210;-48
2021/09/30 14:11:27;;;;;;;;;;;22.10;59.40;;;;;;486491;244;1207;-48
2021/09/30 14:13:28;;;;;;;;;;;22.10;59.40;;;;;;486649;244;1351;-48
2021/09/30 14:15:29;;;;;;;;;;;22.00;59.40;;;;;;486265;244;1211;-47
2021/09/30 14:17:31;;;;;;;;;;;22.10;59.60;;;;;;486298;244;1251;-48
2021/09/30 14:19:32;;;;;;;;;;;22.10;59.50;;;;;;486287;244;2183;-48
2021/09/30 14:21:33;;;;;;;;;;;22.00;59.60;;;;;;486203;244;1324;-48
2021/09/30 14:23:35;;;;;;;;;;;22.00;59.50;;;;;;486237;244;1223;-48
2021/09/30 14:25:37;;;;;;;;;;;22.10;59.50;;;;;;486214;244;1506;-48